Terminal Aerodrome Forecast
Issued by NWS Charleston, WV

Current Version | Previous Version | Text Only | Print | Product List | Glossary Off
Versions: 1 2 3 4 5 6 7 8 9 10 11 12 13 14 15 16 17 18 19 20 21 22

000
FTUS41 KRLX 022329
TAFHTS
TAF
KHTS 022329Z 0300/0324 VRB03KT P6SM SCT250
     FM031000 19004KT P6SM SCT100
     FM031400 23008G16KT P6SM SCT040
     FM032200 24008KT P6SM VCTS BKN045CB BKN080=

USA.gov is the U.S. government's official web portal to all federal, state and local government web resources and services.